Disclaimer

Please do not use the information listed here in-flight or in-navigation, as they are not provided to us by the airports but are provided by volunteers, so they might be outdated.

Search


Regions


Airport information page

Radio informations:
Tower (TWR) - 118.4 MHz
RADAR - 121.1 MHz
Approach (APP) - 119.4 MHz

Airport informations:
Latitude: 00° 24' 16.05" N
Longitude: 035° 14' 20.14" E
Elevation: 6941 feet - 2116 meters
Operating hours: Remarks
Operating agency: Civil government, landing fees and diplomatic clearance may be required
Timezone: UTC+3
Fuel: N/A

Runway information:
08/26 - 11483 x 148 feet< - >3500 x 45 meters

Recent METARs:
HKEL 130300Z 11011KT 9999 FEW016CB SCT250 13/11 Q1022
HKEL 130330Z 12012KT 9999 FEW016CB SCT250 14/10 Q1022
HKEL 130400Z 11011KT 9999 FEW016CB SCT250 14/11 Q1022

Airport on the map: